sensor_id;sensor_type;location;lat;lon;timestamp;P1;durP1;ratioP1;P2;durP2;ratioP2
46334;SDS011;32051;48.882;9.210;2023-02-01T00:01:28;2.35;;;2.25;;
46334;SDS011;32051;48.882;9.210;2023-02-01T00:03:55;2.63;;;2.42;;
46334;SDS011;32051;48.882;9.210;2023-02-01T00:06:21;1.92;;;1.83;;
46334;SDS011;32051;48.882;9.210;2023-02-01T00:08:47;2.10;;;2.00;;
46334;SDS011;32051;48.882;9.210;2023-02-01T00:11:13;2.67;;;2.47;;
46334;SDS011;32051;48.882;9.210;2023-02-01T00:13:40;2.15;;;2.05;;
46334;SDS011;32051;48.882;9.210;2023-02-01T00:16:08;1.95;;;1.77;;
46334;SDS011;32051;48.882;9.210;2023-02-01T00:18:34;2.33;;;1.50;;
46334;SDS011;32051;48.882;9.210;2023-02-01T00:21:01;2.25;;;2.08;;
46334;SDS011;32051;48.882;9.210;2023-02-01T00:23:27;1.98;;;1.88;;
46334;SDS011;32051;48.882;9.210;2023-02-01T00:25:53;2.45;;;2.25;;
46334;SDS011;32051;48.882;9.210;2023-02-01T00:28:19;1.63;;;1.52;;
46334;SDS011;32051;48.882;9.210;2023-02-01T00:30:45;2.17;;;2.05;;
46334;SDS011;32051;48.882;9.210;2023-02-01T00:33:11;1.70;;;1.60;;
46334;SDS011;32051;48.882;9.210;2023-02-01T00:35:37;2.08;;;1.70;;
46334;SDS011;32051;48.882;9.210;2023-02-01T00:38:03;2.30;;;2.10;;
46334;SDS011;32051;48.882;9.210;2023-02-01T00:40:29;2.03;;;1.90;;
46334;SDS011;32051;48.882;9.210;2023-02-01T00:42:55;1.60;;;1.50;;
46334;SDS011;32051;48.882;9.210;2023-02-01T00:45:22;1.33;;;1.27;;
46334;SDS011;32051;48.882;9.210;2023-02-01T00:47:48;1.70;;;1.60;;
46334;SDS011;32051;48.882;9.210;2023-02-01T00:50:15;1.70;;;1.60;;
46334;SDS011;32051;48.882;9.210;2023-02-01T00:52:41;1.25;;;1.20;;
46334;SDS011;32051;48.882;9.210;2023-02-01T00:55:07;2.03;;;1.70;;
46334;SDS011;32051;48.882;9.210;2023-02-01T00:57:33;1.67;;;1.58;;
46334;SDS011;32051;48.882;9.210;2023-02-01T00:59:59;1.92;;;1.73;;
46334;SDS011;32051;48.882;9.210;2023-02-01T01:02:25;1.52;;;1.42;;
46334;SDS011;32051;48.882;9.210;2023-02-01T01:04:52;2.00;;;1.80;;
46334;SDS011;32051;48.882;9.210;2023-02-01T01:07:18;3.58;;;2.03;;
46334;SDS011;32051;48.882;9.210;2023-02-01T01:09:45;1.90;;;1.80;;
46334;SDS011;32051;48.882;9.210;2023-02-01T01:12:11;1.70;;;1.60;;
46334;SDS011;32051;48.882;9.210;2023-02-01T01:14:37;1.95;;;1.85;;
46334;SDS011;32051;48.882;9.210;2023-02-01T01:17:03;1.50;;;1.33;;
46334;SDS011;32051;48.882;9.210;2023-02-01T01:19:29;2.38;;;1.38;;
46334;SDS011;32051;48.882;9.210;2023-02-01T01:21:55;2.35;;;2.10;;
46334;SDS011;32051;48.882;9.210;2023-02-01T01:24:21;1.50;;;1.40;;
46334;SDS011;32051;48.882;9.210;2023-02-01T01:26:47;1.42;;;1.33;;
46334;SDS011;32051;48.882;9.210;2023-02-01T01:29:13;1.40;;;1.30;;
46334;SDS011;32051;48.882;9.210;2023-02-01T01:31:40;1.48;;;1.38;;
46334;SDS011;32051;48.882;9.210;2023-02-01T01:34:06;1.27;;;1.20;;
46334;SDS011;32051;48.882;9.210;2023-02-01T01:36:32;1.00;;;1.00;;
46334;SDS011;32051;48.882;9.210;2023-02-01T01:38:58;3.03;;;1.70;;
46334;SDS011;32051;48.882;9.210;2023-02-01T01:41:25;1.55;;;1.45;;
46334;SDS011;32051;48.882;9.210;2023-02-01T01:46:23;2.63;;;1.35;;
46334;SDS011;32051;48.882;9.210;2023-02-01T01:48:52;1.40;;;1.30;;
46334;SDS011;32051;48.882;9.210;2023-02-01T01:51:20;1.27;;;1.15;;
46334;SDS011;32051;48.882;9.210;2023-02-01T01:53:48;1.35;;;1.25;;
46334;SDS011;32051;48.882;9.210;2023-02-01T01:56:16;1.48;;;1.38;;
46334;SDS011;32051;48.882;9.210;2023-02-01T01:58:42;0.98;;;0.98;;
46334;SDS011;32051;48.882;9.210;2023-02-01T02:01:08;0.90;;;0.90;;
46334;SDS011;32051;48.882;9.210;2023-02-01T02:03:37;0.93;;;0.93;;
46334;SDS011;32051;48.882;9.210;2023-02-01T02:06:03;1.10;;;1.10;;
46334;SDS011;32051;48.882;9.210;2023-02-01T02:08:32;0.88;;;0.88;;
46334;SDS011;32051;48.882;9.210;2023-02-01T02:10:59;3.22;;;0.90;;
46334;SDS011;32051;48.882;9.210;2023-02-01T02:13:27;0.90;;;0.90;;
46334;SDS011;32051;48.882;9.210;2023-02-01T02:21:33;0.85;;;0.85;;
46334;SDS011;32051;48.882;9.210;2023-02-01T02:32:12;1.17;;;1.17;;
46334;SDS011;32051;48.882;9.210;2023-02-01T02:34:52;0.95;;;0.90;;
46334;SDS011;32051;48.882;9.210;2023-02-01T02:45:17;1.10;;;1.10;;
46334;SDS011;32051;48.882;9.210;2023-02-01T02:50:51;1.23;;;1.23;;
46334;SDS011;32051;48.882;9.210;2023-02-01T02:53:41;0.65;;;0.65;;
46334;SDS011;32051;48.882;9.210;2023-02-01T02:56:30;1.02;;;1.00;;
46334;SDS011;32051;48.882;9.210;2023-02-01T02:59:15;0.70;;;0.70;;
46334;SDS011;32051;48.882;9.210;2023-02-01T03:02:02;1.20;;;1.10;;
46334;SDS011;32051;48.882;9.210;2023-02-01T03:04:46;1.55;;;1.10;;
46334;SDS011;32051;48.882;9.210;2023-02-01T03:10:07;1.20;;;1.10;;
46334;SDS011;32051;48.882;9.210;2023-02-01T03:12:36;0.70;;;0.70;;
46334;SDS011;32051;48.882;9.210;2023-02-01T03:15:21;1.17;;;1.08;;
46334;SDS011;32051;48.882;9.210;2023-02-01T03:17:48;3.90;;;1.20;;
46334;SDS011;32051;48.882;9.210;2023-02-01T03:20:16;1.00;;;1.00;;
46334;SDS011;32051;48.882;9.210;2023-02-01T03:22:45;1.10;;;1.10;;
46334;SDS011;32051;48.882;9.210;2023-02-01T03:25:14;1.50;;;1.40;;
46334;SDS011;32051;48.882;9.210;2023-02-01T03:27:46;0.95;;;0.95;;
46334;SDS011;32051;48.882;9.210;2023-02-01T03:30:22;1.63;;;1.52;;
46334;SDS011;32051;48.882;9.210;2023-02-01T03:32:50;1.52;;;1.42;;
46334;SDS011;32051;48.882;9.210;2023-02-01T03:38:01;1.45;;;1.33;;
46334;SDS011;32051;48.882;9.210;2023-02-01T03:40:30;1.55;;;1.45;;
46334;SDS011;32051;48.882;9.210;2023-02-01T03:43:01;1.98;;;1.33;;
46334;SDS011;32051;48.882;9.210;2023-02-01T03:45:40;1.67;;;1.58;;
46334;SDS011;32051;48.882;9.210;2023-02-01T03:48:07;3.03;;;1.38;;
46334;SDS011;32051;48.882;9.210;2023-02-01T03:50:34;1.45;;;1.38;;
46334;SDS011;32051;48.882;9.210;2023-02-01T03:53:04;3.83;;;2.17;;
46334;SDS011;32051;48.882;9.210;2023-02-01T03:55:31;1.60;;;1.50;;
46334;SDS011;32051;48.882;9.210;2023-02-01T03:58:08;1.95;;;1.63;;
46334;SDS011;32051;48.882;9.210;2023-02-01T04:00:35;1.02;;;1.02;;
46334;SDS011;32051;48.882;9.210;2023-02-01T04:03:02;1.38;;;1.35;;
46334;SDS011;32051;48.882;9.210;2023-02-01T04:05:29;2.75;;;1.58;;
46334;SDS011;32051;48.882;9.210;2023-02-01T04:08:00;1.10;;;1.10;;
46334;SDS011;32051;48.882;9.210;2023-02-01T04:10:26;1.00;;;0.90;;
46334;SDS011;32051;48.882;9.210;2023-02-01T04:12:52;1.05;;;0.90;;
46334;SDS011;32051;48.882;9.210;2023-02-01T04:15:18;1.23;;;1.20;;
46334;SDS011;32051;48.882;9.210;2023-02-01T04:17:44;2.88;;;1.60;;
46334;SDS011;32051;48.882;9.210;2023-02-01T04:20:10;1.55;;;1.45;;
46334;SDS011;32051;48.882;9.210;2023-02-01T04:22:36;1.00;;;1.00;;
46334;SDS011;32051;48.882;9.210;2023-02-01T04:25:03;1.40;;;1.30;;
46334;SDS011;32051;48.882;9.210;2023-02-01T04:27:30;1.40;;;1.40;;
46334;SDS011;32051;48.882;9.210;2023-02-01T04:29:56;1.35;;;1.00;;
46334;SDS011;32051;48.882;9.210;2023-02-01T04:32:23;2.20;;;1.50;;
46334;SDS011;32051;48.882;9.210;2023-02-01T04:34:49;1.88;;;1.73;;
46334;SDS011;32051;48.882;9.210;2023-02-01T04:37:15;0.90;;;0.90;;
46334;SDS011;32051;48.882;9.210;2023-02-01T04:39:41;2.72;;;0.80;;
46334;SDS011;32051;48.882;9.210;2023-02-01T04:42:07;1.33;;;1.30;;
46334;SDS011;32051;48.882;9.210;2023-02-01T04:44:33;1.30;;;1.20;;
46334;SDS011;32051;48.882;9.210;2023-02-01T04:47:02;1.33;;;1.25;;
46334;SDS011;32051;48.882;9.210;2023-02-01T04:49:28;1.20;;;1.20;;
46334;SDS011;32051;48.882;9.210;2023-02-01T04:51:54;1.77;;;1.25;;
46334;SDS011;32051;48.882;9.210;2023-02-01T04:54:20;1.10;;;1.10;;
46334;SDS011;32051;48.882;9.210;2023-02-01T04:56:46;1.00;;;1.00;;
46334;SDS011;32051;48.882;9.210;2023-02-01T04:59:12;1.30;;;1.20;;
46334;SDS011;32051;48.882;9.210;2023-02-01T05:01:38;1.98;;;1.33;;
46334;SDS011;32051;48.882;9.210;2023-02-01T05:04:04;0.90;;;0.90;;
46334;SDS011;32051;48.882;9.210;2023-02-01T05:06:30;1.20;;;0.90;;
46334;SDS011;32051;48.882;9.210;2023-02-01T05:08:56;1.17;;;1.17;;
46334;SDS011;32051;48.882;9.210;2023-02-01T05:11:22;1.63;;;1.60;;
46334;SDS011;32051;48.882;9.210;2023-02-01T05:14:07;1.27;;;1.17;;
46334;SDS011;32051;48.882;9.210;2023-02-01T05:16:33;3.03;;;0.98;;
46334;SDS011;32051;48.882;9.210;2023-02-01T05:18:59;0.70;;;0.70;;
46334;SDS011;32051;48.882;9.210;2023-02-01T05:21:25;1.10;;;1.00;;
46334;SDS011;32051;48.882;9.210;2023-02-01T05:23:51;0.85;;;0.85;;
46334;SDS011;32051;48.882;9.210;2023-02-01T05:26:38;2.38;;;1.25;;
46334;SDS011;32051;48.882;9.210;2023-02-01T05:29:04;1.23;;;1.13;;
46334;SDS011;32051;48.882;9.210;2023-02-01T05:31:31;1.20;;;1.20;;
46334;SDS011;32051;48.882;9.210;2023-02-01T05:33:57;2.22;;;1.15;;
46334;SDS011;32051;48.882;9.210;2023-02-01T05:36:23;3.72;;;1.60;;
46334;SDS011;32051;48.882;9.210;2023-02-01T05:38:49;1.42;;;1.33;;
46334;SDS011;32051;48.882;9.210;2023-02-01T05:41:15;1.20;;;1.20;;
46334;SDS011;32051;48.882;9.210;2023-02-01T05:43:41;1.75;;;1.05;;
46334;SDS011;32051;48.882;9.210;2023-02-01T05:46:07;1.30;;;1.20;;
46334;SDS011;32051;48.882;9.210;2023-02-01T05:48:35;1.45;;;1.27;;
46334;SDS011;32051;48.882;9.210;2023-02-01T05:51:02;1.40;;;1.23;;
46334;SDS011;32051;48.882;9.210;2023-02-01T05:53:28;4.93;;;1.40;;
46334;SDS011;32051;48.882;9.210;2023-02-01T05:55:54;2.15;;;1.50;;
46334;SDS011;32051;48.882;9.210;2023-02-01T05:58:20;1.40;;;1.30;;
46334;SDS011;32051;48.882;9.210;2023-02-01T06:00:46;1.05;;;1.05;;
46334;SDS011;32051;48.882;9.210;2023-02-01T06:03:12;1.77;;;1.67;;
46334;SDS011;32051;48.882;9.210;2023-02-01T06:05:38;4.60;;;1.23;;
46334;SDS011;32051;48.882;9.210;2023-02-01T06:08:04;5.28;;;1.45;;
46334;SDS011;32051;48.882;9.210;2023-02-01T06:10:32;1.02;;;1.02;;
46334;SDS011;32051;48.882;9.210;2023-02-01T06:12:59;1.85;;;1.20;;
46334;SDS011;32051;48.882;9.210;2023-02-01T06:15:25;1.05;;;1.05;;
46334;SDS011;32051;48.882;9.210;2023-02-01T06:17:51;1.17;;;1.00;;
46334;SDS011;32051;48.882;9.210;2023-02-01T06:20:17;2.70;;;1.55;;
46334;SDS011;32051;48.882;9.210;2023-02-01T06:22:43;5.28;;;1.30;;
46334;SDS011;32051;48.882;9.210;2023-02-01T06:25:09;0.80;;;0.80;;
46334;SDS011;32051;48.882;9.210;2023-02-01T06:27:35;1.10;;;1.10;;
46334;SDS011;32051;48.882;9.210;2023-02-01T06:30:02;2.40;;;1.65;;
46334;SDS011;32051;48.882;9.210;2023-02-01T06:32:29;1.45;;;1.25;;
46334;SDS011;32051;48.882;9.210;2023-02-01T06:34:55;4.78;;;1.50;;
46334;SDS011;32051;48.882;9.210;2023-02-01T06:37:22;1.52;;;1.42;;
46334;SDS011;32051;48.882;9.210;2023-02-01T06:39:49;1.50;;;1.23;;
46334;SDS011;32051;48.882;9.210;2023-02-01T06:42:16;1.80;;;1.70;;
46334;SDS011;32051;48.882;9.210;2023-02-01T06:44:42;1.85;;;1.75;;
46334;SDS011;32051;48.882;9.210;2023-02-01T06:47:08;5.57;;;2.53;;
46334;SDS011;32051;48.882;9.210;2023-02-01T06:49:34;2.17;;;2.08;;
46334;SDS011;32051;48.882;9.210;2023-02-01T06:52:00;3.28;;;2.08;;
46334;SDS011;32051;48.882;9.210;2023-02-01T06:54:27;4.63;;;2.50;;
46334;SDS011;32051;48.882;9.210;2023-02-01T06:56:53;2.63;;;1.88;;
46334;SDS011;32051;48.882;9.210;2023-02-01T06:59:19;4.60;;;2.58;;
46334;SDS011;32051;48.882;9.210;2023-02-01T07:01:45;3.25;;;2.55;;
46334;SDS011;32051;48.882;9.210;2023-02-01T07:04:11;10.65;;;2.40;;
46334;SDS011;32051;48.882;9.210;2023-02-01T07:06:38;3.97;;;2.55;;
46334;SDS011;32051;48.882;9.210;2023-02-01T07:09:04;7.18;;;2.28;;
46334;SDS011;32051;48.882;9.210;2023-02-01T07:11:30;3.65;;;2.40;;
46334;SDS011;32051;48.882;9.210;2023-02-01T07:13:58;8.75;;;2.83;;
46334;SDS011;32051;48.882;9.210;2023-02-01T07:16:24;5.38;;;2.58;;
46334;SDS011;32051;48.882;9.210;2023-02-01T07:18:51;9.02;;;2.58;;
46334;SDS011;32051;48.882;9.210;2023-02-01T07:21:17;7.07;;;2.65;;
46334;SDS011;32051;48.882;9.210;2023-02-01T07:23:43;9.85;;;2.72;;
46334;SDS011;32051;48.882;9.210;2023-02-01T07:26:11;7.63;;;3.20;;
46334;SDS011;32051;48.882;9.210;2023-02-01T07:28:38;7.10;;;2.33;;
46334;SDS011;32051;48.882;9.210;2023-02-01T07:31:08;5.38;;;3.92;;
46334;SDS011;32051;48.882;9.210;2023-02-01T07:33:35;3.42;;;2.35;;
46334;SDS011;32051;48.882;9.210;2023-02-01T07:36:02;8.13;;;2.83;;
46334;SDS011;32051;48.882;9.210;2023-02-01T07:38:28;7.25;;;2.88;;
46334;SDS011;32051;48.882;9.210;2023-02-01T07:40:58;9.43;;;2.33;;
46334;SDS011;32051;48.882;9.210;2023-02-01T07:43:24;8.15;;;2.70;;
46334;SDS011;32051;48.882;9.210;2023-02-01T07:45:51;6.22;;;3.10;;
46334;SDS011;32051;48.882;9.210;2023-02-01T07:48:17;3.67;;;2.92;;
46334;SDS011;32051;48.882;9.210;2023-02-01T07:50:43;7.10;;;2.33;;
46334;SDS011;32051;48.882;9.210;2023-02-01T07:53:09;8.15;;;2.58;;
46334;SDS011;32051;48.882;9.210;2023-02-01T07:55:39;5.97;;;2.35;;
46334;SDS011;32051;48.882;9.210;2023-02-01T07:58:05;5.10;;;2.15;;
46334;SDS011;32051;48.882;9.210;2023-02-01T08:00:31;4.85;;;3.33;;
46334;SDS011;32051;48.882;9.210;2023-02-01T08:03:16;9.20;;;2.90;;
46334;SDS011;32051;48.882;9.210;2023-02-01T08:05:42;12.15;;;3.20;;
46334;SDS011;32051;48.882;9.210;2023-02-01T08:08:08;8.23;;;3.38;;
46334;SDS011;32051;48.882;9.210;2023-02-01T08:10:35;8.25;;;2.63;;
46334;SDS011;32051;48.882;9.210;2023-02-01T08:13:02;5.68;;;2.75;;
46334;SDS011;32051;48.882;9.210;2023-02-01T08:15:30;10.32;;;3.05;;
46334;SDS011;32051;48.882;9.210;2023-02-01T08:17:56;6.85;;;3.85;;
46334;SDS011;32051;48.882;9.210;2023-02-01T08:20:23;8.13;;;2.70;;
46334;SDS011;32051;48.882;9.210;2023-02-01T08:22:51;3.45;;;2.55;;
46334;SDS011;32051;48.882;9.210;2023-02-01T08:25:17;8.73;;;3.90;;
46334;SDS011;32051;48.882;9.210;2023-02-01T08:27:43;5.13;;;2.25;;
46334;SDS011;32051;48.882;9.210;2023-02-01T08:30:10;11.40;;;3.25;;
46334;SDS011;32051;48.882;9.210;2023-02-01T08:32:36;5.47;;;1.92;;
46334;SDS011;32051;48.882;9.210;2023-02-01T08:35:03;5.45;;;2.03;;
46334;SDS011;32051;48.882;9.210;2023-02-01T08:37:29;6.57;;;2.65;;
46334;SDS011;32051;48.882;9.210;2023-02-01T08:39:55;6.60;;;2.28;;
46334;SDS011;32051;48.882;9.210;2023-02-01T08:42:21;7.35;;;2.92;;
46334;SDS011;32051;48.882;9.210;2023-02-01T08:45:06;9.27;;;3.53;;
46334;SDS011;32051;48.882;9.210;2023-02-01T08:47:33;8.75;;;2.85;;
46334;SDS011;32051;48.882;9.210;2023-02-01T08:49:59;6.90;;;2.53;;
46334;SDS011;32051;48.882;9.210;2023-02-01T08:52:25;8.55;;;2.75;;
46334;SDS011;32051;48.882;9.210;2023-02-01T08:54:51;9.38;;;2.90;;
46334;SDS011;32051;48.882;9.210;2023-02-01T08:57:17;6.60;;;2.50;;
46334;SDS011;32051;48.882;9.210;2023-02-01T08:59:43;5.18;;;2.13;;
46334;SDS011;32051;48.882;9.210;2023-02-01T09:02:13;15.52;;;4.03;;
46334;SDS011;32051;48.882;9.210;2023-02-01T09:04:40;11.43;;;3.22;;
46334;SDS011;32051;48.882;9.210;2023-02-01T09:07:06;4.50;;;3.28;;
46334;SDS011;32051;48.882;9.210;2023-02-01T09:09:32;7.07;;;2.50;;
46334;SDS011;32051;48.882;9.210;2023-02-01T09:11:58;10.32;;;2.95;;
46334;SDS011;32051;48.882;9.210;2023-02-01T09:14:25;11.82;;;3.50;;
46334;SDS011;32051;48.882;9.210;2023-02-01T09:16:51;5.40;;;2.45;;
46334;SDS011;32051;48.882;9.210;2023-02-01T09:19:17;14.00;;;2.25;;
46334;SDS011;32051;48.882;9.210;2023-02-01T09:21:43;6.13;;;2.80;;
46334;SDS011;32051;48.882;9.210;2023-02-01T09:24:12;7.53;;;2.58;;
46334;SDS011;32051;48.882;9.210;2023-02-01T09:26:39;9.15;;;2.92;;
46334;SDS011;32051;48.882;9.210;2023-02-01T09:29:05;3.50;;;2.53;;
46334;SDS011;32051;48.882;9.210;2023-02-01T09:31:35;18.92;;;4.40;;
46334;SDS011;32051;48.882;9.210;2023-02-01T09:34:01;6.45;;;2.22;;
46334;SDS011;32051;48.882;9.210;2023-02-01T09:36:27;10.55;;;2.45;;
46334;SDS011;32051;48.882;9.210;2023-02-01T09:38:54;17.15;;;3.35;;
46334;SDS011;32051;48.882;9.210;2023-02-01T09:44:08;8.13;;;2.58;;
46334;SDS011;32051;48.882;9.210;2023-02-01T09:49:09;14.10;;;2.90;;
46334;SDS011;32051;48.882;9.210;2023-02-01T09:51:37;13.45;;;3.50;;
46334;SDS011;32051;48.882;9.210;2023-02-01T09:54:12;8.27;;;3.65;;
46334;SDS011;32051;48.882;9.210;2023-02-01T09:57:02;10.80;;;3.05;;
46334;SDS011;32051;48.882;9.210;2023-02-01T10:02:01;7.15;;;2.13;;
46334;SDS011;32051;48.882;9.210;2023-02-01T10:04:28;8.95;;;2.08;;
46334;SDS011;32051;48.882;9.210;2023-02-01T10:09:58;20.08;;;3.00;;
46334;SDS011;32051;48.882;9.210;2023-02-01T10:20:00;9.68;;;2.97;;
46334;SDS011;32051;48.882;9.210;2023-02-01T10:22:35;9.88;;;2.10;;
46334;SDS011;32051;48.882;9.210;2023-02-01T10:27:38;5.13;;;2.10;;
46334;SDS011;32051;48.882;9.210;2023-02-01T10:30:20;14.05;;;2.90;;
46334;SDS011;32051;48.882;9.210;2023-02-01T10:32:51;9.30;;;3.03;;
46334;SDS011;32051;48.882;9.210;2023-02-01T10:35:22;12.90;;;3.10;;
46334;SDS011;32051;48.882;9.210;2023-02-01T10:37:49;16.55;;;3.90;;
46334;SDS011;32051;48.882;9.210;2023-02-01T10:40:20;10.30;;;2.90;;
46334;SDS011;32051;48.882;9.210;2023-02-01T10:42:47;15.68;;;2.95;;
46334;SDS011;32051;48.882;9.210;2023-02-01T10:45:15;9.25;;;2.40;;
46334;SDS011;32051;48.882;9.210;2023-02-01T10:47:41;6.57;;;2.28;;
46334;SDS011;32051;48.882;9.210;2023-02-01T10:55:48;7.85;;;2.42;;
46334;SDS011;32051;48.882;9.210;2023-02-01T11:03:34;20.65;;;3.50;;
46334;SDS011;32051;48.882;9.210;2023-02-01T11:05:59;6.32;;;2.05;;
46334;SDS011;32051;48.882;9.210;2023-02-01T11:08:25;15.45;;;2.40;;
46334;SDS011;32051;48.882;9.210;2023-02-01T11:11:02;7.82;;;3.15;;
46334;SDS011;32051;48.882;9.210;2023-02-01T11:13:31;11.57;;;2.80;;
46334;SDS011;32051;48.882;9.210;2023-02-01T11:16:01;9.75;;;2.92;;
46334;SDS011;32051;48.882;9.210;2023-02-01T11:18:28;6.95;;;3.10;;
46334;SDS011;32051;48.882;9.210;2023-02-01T11:20:54;8.68;;;2.78;;
46334;SDS011;32051;48.882;9.210;2023-02-01T11:23:22;7.90;;;2.47;;
46334;SDS011;32051;48.882;9.210;2023-02-01T11:25:49;7.20;;;2.10;;
46334;SDS011;32051;48.882;9.210;2023-02-01T11:28:16;7.97;;;3.30;;
46334;SDS011;32051;48.882;9.210;2023-02-01T11:30:43;11.20;;;2.42;;
46334;SDS011;32051;48.882;9.210;2023-02-01T11:33:20;15.30;;;3.80;;
46334;SDS011;32051;48.882;9.210;2023-02-01T11:35:50;3.78;;;2.20;;
46334;SDS011;32051;48.882;9.210;2023-02-01T11:38:35;9.57;;;2.38;;
46334;SDS011;32051;48.882;9.210;2023-02-01T11:41:11;7.70;;;2.28;;
46334;SDS011;32051;48.882;9.210;2023-02-01T11:43:37;6.90;;;2.28;;
46334;SDS011;32051;48.882;9.210;2023-02-01T11:46:03;10.75;;;2.35;;
46334;SDS011;32051;48.882;9.210;2023-02-01T11:48:34;11.95;;;2.55;;
46334;SDS011;32051;48.882;9.210;2023-02-01T11:56:27;9.80;;;2.00;;
46334;SDS011;32051;48.882;9.210;2023-02-01T11:59:04;8.70;;;3.08;;
46334;SDS011;32051;48.882;9.210;2023-02-01T12:07:04;8.13;;;1.73;;
46334;SDS011;32051;48.882;9.210;2023-02-01T12:09:45;10.00;;;2.25;;
46334;SDS011;32051;48.882;9.210;2023-02-01T12:12:33;4.90;;;1.83;;
46334;SDS011;32051;48.882;9.210;2023-02-01T12:23:18;8.43;;;2.10;;
46334;SDS011;32051;48.882;9.210;2023-02-01T12:26:02;13.13;;;2.55;;
46334;SDS011;32051;48.882;9.210;2023-02-01T12:31:12;1.80;;;1.60;;
46334;SDS011;32051;48.882;9.210;2023-02-01T12:36:24;7.78;;;2.25;;
46334;SDS011;32051;48.882;9.210;2023-02-01T12:46:45;3.72;;;2.10;;
46334;SDS011;32051;48.882;9.210;2023-02-01T12:52:03;2.75;;;2.00;;
46334;SDS011;32051;48.882;9.210;2023-02-01T12:57:12;6.57;;;2.70;;
46334;SDS011;32051;48.882;9.210;2023-02-01T12:59:42;7.03;;;2.22;;
46334;SDS011;32051;48.882;9.210;2023-02-01T13:04:40;8.50;;;2.75;;
46334;SDS011;32051;48.882;9.210;2023-02-01T13:07:14;13.23;;;3.17;;
46334;SDS011;32051;48.882;9.210;2023-02-01T13:09:41;23.10;;;2.65;;
46334;SDS011;32051;48.882;9.210;2023-02-01T13:12:11;8.80;;;3.55;;
46334;SDS011;32051;48.882;9.210;2023-02-01T13:14:46;9.52;;;2.20;;
46334;SDS011;32051;48.882;9.210;2023-02-01T13:17:19;11.95;;;2.00;;
46334;SDS011;32051;48.882;9.210;2023-02-01T13:24:48;4.70;;;2.38;;
46334;SDS011;32051;48.882;9.210;2023-02-01T13:27:16;5.88;;;2.15;;
46334;SDS011;32051;48.882;9.210;2023-02-01T13:29:46;9.43;;;2.00;;
46334;SDS011;32051;48.882;9.210;2023-02-01T13:37:31;8.55;;;2.90;;
46334;SDS011;32051;48.882;9.210;2023-02-01T13:45:24;12.65;;;3.30;;
46334;SDS011;32051;48.882;9.210;2023-02-01T13:47:51;16.45;;;2.58;;
46334;SDS011;32051;48.882;9.210;2023-02-01T13:52:54;3.80;;;2.38;;
46334;SDS011;32051;48.882;9.210;2023-02-01T13:57:48;11.15;;;2.40;;
46334;SDS011;32051;48.882;9.210;2023-02-01T14:02:59;12.35;;;2.83;;
46334;SDS011;32051;48.882;9.210;2023-02-01T14:13:36;3.92;;;1.55;;
46334;SDS011;32051;48.882;9.210;2023-02-01T14:23:41;12.98;;;3.00;;
46334;SDS011;32051;48.882;9.210;2023-02-01T14:26:09;18.95;;;2.80;;
46334;SDS011;32051;48.882;9.210;2023-02-01T14:28:36;11.77;;;2.70;;
46334;SDS011;32051;48.882;9.210;2023-02-01T14:31:13;4.68;;;2.42;;
46334;SDS011;32051;48.882;9.210;2023-02-01T14:33:41;7.53;;;2.30;;
46334;SDS011;32051;48.882;9.210;2023-02-01T14:36:08;14.88;;;2.85;;
46334;SDS011;32051;48.882;9.210;2023-02-01T14:38:36;12.30;;;3.40;;
46334;SDS011;32051;48.882;9.210;2023-02-01T14:43:51;6.10;;;1.90;;
46334;SDS011;32051;48.882;9.210;2023-02-01T14:49:21;8.68;;;2.60;;
46334;SDS011;32051;48.882;9.210;2023-02-01T14:51:48;6.28;;;1.80;;
46334;SDS011;32051;48.882;9.210;2023-02-01T14:54:14;11.10;;;2.08;;
46334;SDS011;32051;48.882;9.210;2023-02-01T14:56:40;6.63;;;2.03;;
46334;SDS011;32051;48.882;9.210;2023-02-01T14:59:08;6.65;;;2.33;;
46334;SDS011;32051;48.882;9.210;2023-02-01T15:01:38;7.38;;;2.50;;
46334;SDS011;32051;48.882;9.210;2023-02-01T15:04:11;5.38;;;2.50;;
46334;SDS011;32051;48.882;9.210;2023-02-01T15:09:14;7.47;;;2.03;;
46334;SDS011;32051;48.882;9.210;2023-02-01T15:14:23;13.13;;;2.13;;
46334;SDS011;32051;48.882;9.210;2023-02-01T15:16:49;8.98;;;2.30;;
46334;SDS011;32051;48.882;9.210;2023-02-01T15:19:19;8.88;;;2.72;;
46334;SDS011;32051;48.882;9.210;2023-02-01T15:21:51;10.30;;;2.75;;
46334;SDS011;32051;48.882;9.210;2023-02-01T15:24:35;14.00;;;2.70;;
46334;SDS011;32051;48.882;9.210;2023-02-01T15:27:02;8.73;;;2.05;;
46334;SDS011;32051;48.882;9.210;2023-02-01T15:29:29;13.32;;;2.70;;
46334;SDS011;32051;48.882;9.210;2023-02-01T15:31:58;9.57;;;1.85;;
46334;SDS011;32051;48.882;9.210;2023-02-01T15:34:44;6.63;;;1.63;;
46334;SDS011;32051;48.882;9.210;2023-02-01T15:37:14;13.63;;;2.65;;
46334;SDS011;32051;48.882;9.210;2023-02-01T15:42:29;3.80;;;2.47;;
46334;SDS011;32051;48.882;9.210;2023-02-01T15:44:56;7.65;;;1.80;;
46334;SDS011;32051;48.882;9.210;2023-02-01T15:47:24;12.48;;;3.25;;
46334;SDS011;32051;48.882;9.210;2023-02-01T15:49:52;13.15;;;2.33;;
46334;SDS011;32051;48.882;9.210;2023-02-01T15:52:25;12.52;;;2.42;;
46334;SDS011;32051;48.882;9.210;2023-02-01T15:54:59;10.20;;;1.98;;
46334;SDS011;32051;48.882;9.210;2023-02-01T15:57:30;11.77;;;2.13;;
46334;SDS011;32051;48.882;9.210;2023-02-01T15:59:57;16.83;;;2.80;;
46334;SDS011;32051;48.882;9.210;2023-02-01T16:04:53;7.60;;;2.83;;
46334;SDS011;32051;48.882;9.210;2023-02-01T16:07:26;8.77;;;3.00;;
46334;SDS011;32051;48.882;9.210;2023-02-01T16:09:54;7.50;;;1.45;;
46334;SDS011;32051;48.882;9.210;2023-02-01T16:14:52;17.87;;;2.67;;
46334;SDS011;32051;48.882;9.210;2023-02-01T16:17:18;17.02;;;2.58;;
46334;SDS011;32051;48.882;9.210;2023-02-01T16:19:44;9.50;;;2.50;;
46334;SDS011;32051;48.882;9.210;2023-02-01T16:22:10;12.65;;;2.35;;
46334;SDS011;32051;48.882;9.210;2023-02-01T16:24:36;12.52;;;2.30;;
46334;SDS011;32051;48.882;9.210;2023-02-01T16:27:02;8.32;;;1.67;;
46334;SDS011;32051;48.882;9.210;2023-02-01T16:29:30;14.65;;;2.17;;
46334;SDS011;32051;48.882;9.210;2023-02-01T16:31:56;7.15;;;2.00;;
46334;SDS011;32051;48.882;9.210;2023-02-01T16:34:22;10.82;;;4.72;;
46334;SDS011;32051;48.882;9.210;2023-02-01T16:36:48;8.43;;;2.42;;
46334;SDS011;32051;48.882;9.210;2023-02-01T16:39:20;11.45;;;3.17;;
46334;SDS011;32051;48.882;9.210;2023-02-01T16:41:46;6.85;;;1.70;;
46334;SDS011;32051;48.882;9.210;2023-02-01T16:44:13;6.97;;;1.80;;
46334;SDS011;32051;48.882;9.210;2023-02-01T16:46:40;13.68;;;2.65;;
46334;SDS011;32051;48.882;9.210;2023-02-01T16:49:14;13.20;;;3.40;;
46334;SDS011;32051;48.882;9.210;2023-02-01T16:51:42;7.40;;;2.00;;
46334;SDS011;32051;48.882;9.210;2023-02-01T16:54:08;13.68;;;2.40;;
46334;SDS011;32051;48.882;9.210;2023-02-01T16:56:35;12.07;;;3.15;;
46334;SDS011;32051;48.882;9.210;2023-02-01T16:59:01;8.85;;;2.70;;
46334;SDS011;32051;48.882;9.210;2023-02-01T17:01:28;11.65;;;2.35;;
46334;SDS011;32051;48.882;9.210;2023-02-01T17:03:54;7.75;;;2.17;;
46334;SDS011;32051;48.882;9.210;2023-02-01T17:06:21;6.97;;;2.42;;
46334;SDS011;32051;48.882;9.210;2023-02-01T17:08:52;8.05;;;2.08;;
46334;SDS011;32051;48.882;9.210;2023-02-01T17:11:19;15.82;;;2.92;;
46334;SDS011;32051;48.882;9.210;2023-02-01T17:13:45;10.88;;;1.83;;
46334;SDS011;32051;48.882;9.210;2023-02-01T17:18:43;8.30;;;3.17;;
46334;SDS011;32051;48.882;9.210;2023-02-01T17:21:10;5.88;;;1.80;;
46334;SDS011;32051;48.882;9.210;2023-02-01T17:23:36;7.82;;;3.03;;
46334;SDS011;32051;48.882;9.210;2023-02-01T17:26:02;7.25;;;2.03;;
46334;SDS011;32051;48.882;9.210;2023-02-01T17:28:29;6.40;;;2.05;;
46334;SDS011;32051;48.882;9.210;2023-02-01T17:30:55;8.32;;;2.53;;
46334;SDS011;32051;48.882;9.210;2023-02-01T17:35:47;5.82;;;2.30;;
46334;SDS011;32051;48.882;9.210;2023-02-01T17:38:13;5.78;;;2.95;;
46334;SDS011;32051;48.882;9.210;2023-02-01T17:40:39;12.63;;;2.55;;